Bookmark and Share
Track history (hours):
 

Sti Coral

Last reported at 2012-Aug-15 12:32 UTC. Time now 2014-Apr-24 22:00 UTC.
Position N 24°06' W 116°57'.
Warning: this ship's position is years out of date!

Length 183 m; draft 10.8 m.

Type: Ship (hazmat cat C). MMSI: 538004346.

NotesDate/timePositionNaut miles runAvg speedWind from/ knotsBaromVisibWave heightAir tempDewpointWater temp
2012-Aug-15 12:32N 24°06' W 116°57'1413.0
2012-Aug-15 11:28N 24°17' W 117°07'2513.0
2012-Aug-15 09:32N 24°37' W 117°23'1313.0
2012-Aug-15 08:33N 24°48' W 117°32'1312.9
2012-Aug-15 07:33N 24°58' W 117°40'1312.9
2012-Aug-15 06:33N 25°08' W 117°49'1312.9
2012-Aug-15 05:32N 25°18' W 117°58'1213.0
2012-Aug-15 04:36N 25°28' W 118°06'1413.1
2012-Aug-15 03:33N 25°39' W 118°15'1313.1
2012-Aug-15 02:32N 25°50' W 118°24'1313.2
2012-Aug-15 01:32N 26°00' W 118°33'1313.2
2012-Aug-15 00:33N 26°10' W 118°42'1313.2
2012-Aug-14 23:33N 26°21' W 118°51'1313.1
2012-Aug-14 22:32N 26°31' W 118°60'1313.3
2012-Aug-14 21:34N 26°42' W 119°08'1313.0
2012-Aug-14 20:32N 26°52' W 119°18'1312.7
2012-Aug-14 19:32N 27°02' W 119°26'1312.7
2012-Aug-14 18:33N 27°12' W 119°35'1312.9
2012-Aug-14 17:33N 27°23' W 119°43'1313.2
2012-Aug-14 16:32N 27°33' W 119°53'1313.2
2012-Aug-14 15:33N 27°44' W 120°01'1313.1
2012-Aug-14 14:33N 27°54' W 120°10'1313.3
2012-Aug-14 13:32N 28°04' W 120°20'1313.3
2012-Aug-14 12:33N 28°15' W 120°29'1313.3
2012-Aug-14 11:33N 28°26' W 120°38'1313.3
2012-Aug-14 10:36N 28°36' W 120°47'1413.3
2012-Aug-14 09:32N 28°47' W 120°56'1313.4
2012-Aug-14 08:33N 28°57' W 121°06'1313.4
2012-Aug-14 07:33N 29°08' W 121°15'1413.3
2012-Aug-14 06:31N 29°19' W 121°24'1313.5
2012-Aug-14 05:33N 29°30' W 121°33'2713.3
2012-Aug-14 03:33N 29°51' W 121°52'1413.3
2012-Aug-14 02:32N 30°01' W 122°02'1513.4
2012-Aug-14 01:27N 30°13' W 122°12'1213.4
2012-Aug-14 00:34N 30°22' W 122°20'1413.4
2012-Aug-13 23:32N 30°33' W 122°30'1313.4
2012-Aug-13 22:33N 30°43' W 122°40'1313.3
2012-Aug-13 21:33N 30°54' W 122°49'1313.3
2012-Aug-13 20:33N 31°04' W 122°59'5212.9
2012-Aug-13 16:30N 31°45' W 123°37'1212.6
2012-Aug-13 15:33N 31°55' W 123°46'1412.8
2012-Aug-13 14:27N 32°05' W 123°56'1212.8
2012-Aug-13 13:30N 32°15' W 124°06'1312.6
2012-Aug-13 12:27N 32°25' W 124°15'3712.6
2012-Aug-13 09:31N 32°57' W 124°38'6312.7
2012-Aug-13 04:35N 33°52' W 125°15'2612.8
2012-Aug-13 02:33N 34°15' W 125°27'1313.0
2012-Aug-13 01:32N 34°27' W 125°34'1514.7
2012-Aug-13 00:31N 34°42' W 125°40'1211.0
2012-Aug-12 23:25N 34°53' W 125°45'1112.8
2012-Aug-12 22:33N 35°03' W 125°49'1211.9
2012-Aug-12 21:33N 35°13' W 125°40'1212.4
2012-Aug-12 20:33N 35°23' W 125°31'1312.5
2012-Aug-12 19:32N 35°33' W 125°22'1212.7
2012-Aug-12 18:33N 35°43' W 125°12'1413.3
2012-Aug-12 17:32N 35°53' W 125°01'1513.6
2012-Aug-12 16:26N 36°04' W 124°48'5013.0
2012-Aug-12 12:33N 36°41' W 124°07'1211.9
2012-Aug-12 11:32N 36°50' W 123°56'1111.8
2012-Aug-12 10:36N 36°57' W 123°46'1312.3
2012-Aug-12 09:33N 37°07' W 123°36'1212.4
2012-Aug-12 08:34N 37°17' W 123°26'1312.5
2012-Aug-12 07:33N 37°26' W 123°15'1212.6
2012-Aug-12 06:33N 37°35' W 123°04'1111.4
2012-Aug-12 05:33N 37°41' W 122°52'1010.9
2012-Aug-12 04:37N 37°46' W 122°40'1110.0
2012-Aug-12 03:32N 37°50' W 122°28'5 4.8
2012-Aug-12 02:33N 37°55' W 122°27'8 7.8
2012-Aug-12 01:33N 38°02' W 122°23'6 5.5
2012-Aug-12 00:30N 38°03' W 122°16'0 0.0
2012-Aug-11 23:30N 38°03' W 122°16'0 0.0
2012-Aug-11 22:24N 38°03' W 122°16'0 0.0
2012-Aug-11 21:30N 38°03' W 122°16'0 0.0
2012-Aug-11 19:24N 38°03' W 122°16'0 0.0
2012-Aug-11 18:30N 38°03' W 122°16'0 0.0
2012-Aug-11 17:24N 38°03' W 122°16'0 0.0
2012-Aug-11 16:30N 38°03' W 122°16'0 0.0
2012-Aug-11 15:30N 38°03' W 122°16'0 0.0
2012-Aug-11 14:30N 38°03' W 122°16'0 0.0
2012-Aug-11 13:30N 38°03' W 122°16'0 0.0
2012-Aug-11 12:30N 38°03' W 122°16'0 0.0
2012-Aug-11 11:24N 38°03' W 122°16'0 0.0
2012-Aug-11 10:36N 38°03' W 122°16'0 0.0
2012-Aug-11 09:30N 38°03' W 122°16'0 0.0
2012-Aug-11 08:30N 38°03' W 122°16'0 0.0
2012-Aug-11 07:30N 38°03' W 122°16'0 0.0
2012-Aug-11 06:30N 38°03' W 122°16'0 0.0
2012-Aug-11 05:30N 38°03' W 122°16'0 0.0
2012-Aug-11 04:36N 38°03' W 122°16'0 0.0
2012-Aug-11 03:30N 38°03' W 122°16'0 0.0
2012-Aug-11 02:30N 38°03' W 122°16'0 0.0
2012-Aug-10 21:30N 38°03' W 122°16'  
2012-Aug-08 09:29N 38°03' W 122°19'17 8.6
2012-Aug-08 07:29N 37°46' W 122°21'18 1.1
2012-Aug-07 14:33N 37°42' W 122°44'3 3.4
2012-Aug-07 13:33N 37°40' W 122°47'8 7.6
2012-Aug-07 12:33N 37°36' W 122°55'1312.8
2012-Aug-07 11:33N 37°28' W 123°07'1213.0
2012-Aug-07 10:36N 37°19' W 123°18'1413.0
2012-Aug-07 09:33N 37°09' W 123°30'1313.1
2012-Aug-07 08:34N 36°59' W 123°40'1313.0
2012-Aug-07 07:33N 36°50' W 123°52'9 8.2
2012-Aug-07 06:28N 36°44' W 124°00'3 3.6
2012-Aug-07 05:33N 36°46' W 123°57'1212.8
2012-Aug-07 04:36N 36°37' W 124°07'1412.3
2012-Aug-07 03:29N 36°27' W 124°19'1211.6
2012-Aug-07 02:26N 36°18' W 124°28'11 4.0
2012-Aug-06 23:33N 36°10' W 124°39'1111.5
2012-Aug-06 22:33N 36°02' W 124°49'1211.7
2012-Aug-06 21:33N 35°53' W 124°59'1211.9
2012-Aug-06 20:33N 35°44' W 125°09'1312.9
2012-Aug-06 19:33N 35°35' W 125°20'1312.7
2012-Aug-06 18:33N 35°26' W 125°31'1412.8
2012-Aug-06 17:28N 35°16' W 125°42'1213.1
2012-Aug-06 16:32N 35°06' W 125°52'7 6.8
2012-Aug-06 15:34N 35°02' W 125°58'2 2.2
2012-Aug-06 14:33N 35°01' W 126°00'1110.9
2012-Aug-06 13:32N 34°51' W 125°54'2712.9
2012-Aug-06 11:29N 34°28' W 125°38'1212.9
2012-Aug-06 10:35N 34°18' W 125°31'1313.2
2012-Aug-06 09:34N 34°06' W 125°23'1313.0
2012-Aug-06 08:33N 33°54' W 125°16'2613.2
2012-Aug-06 06:33N 33°31' W 125°01'1313.3
2012-Aug-06 05:32N 33°20' W 124°52'1313.6
2012-Aug-06 04:36N 33°09' W 124°45'1413.5
2012-Aug-06 03:33N 32°56' W 124°37'1413.5
2012-Aug-06 02:32N 32°44' W 124°29'2814.0
2012-Aug-06 00:33N 32°21' W 124°11'1313.3
2012-Aug-05 23:33N 32°10' W 124°02'13113.0
2012-Aug-05 13:30N 30°28' W 122°26'  

Dump ship's entire track history

sailing weather and tide predictions

Sti Coral — V7WN5 — position and weather